createdAt,value
2023-04-27T00:00:56.394Z,56.24
2023-04-27T00:03:28.555Z,56.23
2023-04-27T00:06:00.248Z,56.32
2023-04-27T00:08:32.179Z,56.30
2023-04-27T00:11:03.545Z,56.28
2023-04-27T00:13:34.990Z,56.18
2023-04-27T00:16:06.897Z,56.09
2023-04-27T00:18:38.378Z,55.99
2023-04-27T00:21:09.837Z,55.99
2023-04-27T00:23:41.558Z,55.73
2023-04-27T00:26:13.046Z,55.52
2023-04-27T00:28:45.318Z,55.69
2023-04-27T00:31:16.568Z,55.44
2023-04-27T00:33:48.515Z,55.38
2023-04-27T00:36:21.143Z,55.44
2023-04-27T00:38:52.553Z,55.61
2023-04-27T00:41:25.040Z,55.49
2023-04-27T00:43:56.403Z,55.33
2023-04-27T00:46:28.348Z,55.45
2023-04-27T00:49:00.275Z,55.25
2023-04-27T00:51:32.260Z,55.37
2023-04-27T00:54:03.996Z,55.33
2023-04-27T00:56:35.409Z,55.36
2023-04-27T00:59:06.694Z,55.33
2023-04-27T01:01:38.427Z,55.29
2023-04-27T01:04:10.462Z,55.29
2023-04-27T01:06:41.970Z,55.24
2023-04-27T01:09:14.405Z,55.29
2023-04-27T01:11:45.911Z,55.21
2023-04-27T01:14:17.383Z,55.30
2023-04-27T01:16:49.117Z,55.23
2023-04-27T01:19:20.830Z,55.40
2023-04-27T01:21:52.200Z,55.41
2023-04-27T01:24:24.114Z,55.51
2023-04-27T01:26:55.872Z,55.55
2023-04-27T01:29:27.502Z,55.63
2023-04-27T01:31:58.677Z,55.58
2023-04-27T01:34:30.117Z,55.67
2023-04-27T01:37:01.321Z,55.63
2023-04-27T01:39:32.712Z,55.50
2023-04-27T01:42:05.387Z,55.40
2023-04-27T01:44:36.951Z,55.27
2023-04-27T01:47:08.301Z,55.14
2023-04-27T01:49:39.327Z,54.97
2023-04-27T01:52:10.792Z,55.02
2023-04-27T01:54:42.544Z,55.00
2023-04-27T01:57:15.656Z,54.96
2023-04-27T01:59:49.435Z,55.02
2023-04-27T02:02:20.992Z,55.08
2023-04-27T02:04:52.389Z,55.10
2023-04-27T02:07:23.897Z,55.26
2023-04-27T02:09:54.958Z,55.16
2023-04-27T02:12:26.554Z,55.19
2023-04-27T02:14:58.151Z,55.05
2023-04-27T02:17:31.444Z,55.22
2023-04-27T02:20:02.901Z,55.38
2023-04-27T02:22:34.161Z,55.46
2023-04-27T02:25:06.384Z,55.41
2023-04-27T02:27:39.930Z,55.32
2023-04-27T02:30:13.426Z,55.38
2023-04-27T02:32:48.860Z,55.49
2023-04-27T02:35:20.444Z,55.63
2023-04-27T02:37:52.196Z,55.64
2023-04-27T02:40:23.621Z,55.76
2023-04-27T02:42:54.780Z,55.63
2023-04-27T02:45:26.656Z,55.54
2023-04-27T02:47:58.741Z,55.45
2023-04-27T02:50:30.762Z,55.53
2023-04-27T02:53:02.989Z,55.36
2023-04-27T02:55:34.518Z,55.50
2023-04-27T02:58:05.920Z,55.37
2023-04-27T03:00:37.780Z,55.46
2023-04-27T03:03:10.040Z,55.40
2023-04-27T03:05:41.849Z,55.44
2023-04-27T03:08:13.275Z,55.43
2023-04-27T03:10:44.933Z,55.42
2023-04-27T03:13:16.887Z,55.35
2023-04-27T03:15:48.451Z,55.50
2023-04-27T03:18:19.674Z,55.37
2023-04-27T03:20:51.043Z,55.38
2023-04-27T03:23:22.170Z,55.46
2023-04-27T03:25:53.625Z,55.43
2023-04-27T03:28:24.779Z,55.51
2023-04-27T03:30:56.195Z,55.41
2023-04-27T03:33:28.876Z,55.47
2023-04-27T03:36:00.469Z,55.53
2023-04-27T03:38:32.432Z,55.48
2023-04-27T03:41:03.970Z,55.47
2023-04-27T03:43:35.468Z,55.51
2023-04-27T03:46:07.356Z,55.53
2023-04-27T03:48:38.764Z,55.48
2023-04-27T03:51:11.483Z,55.61
2023-04-27T03:53:43.307Z,55.69
2023-04-27T03:56:14.315Z,55.65
2023-04-27T03:58:46.211Z,55.69
2023-04-27T04:01:22.346Z,55.76
2023-04-27T04:03:53.934Z,55.68
2023-04-27T04:06:26.217Z,55.80
2023-04-27T04:08:57.524Z,55.77
2023-04-27T04:11:29.268Z,55.62
2023-04-27T04:14:02.311Z,55.57
2023-04-27T04:16:34.482Z,55.61
2023-04-27T04:19:05.863Z,55.35
2023-04-27T04:21:37.415Z,55.47
2023-04-27T04:24:10.338Z,55.54
2023-04-27T04:26:41.780Z,55.42
2023-04-27T04:29:14.042Z,55.28
2023-04-27T04:31:45.325Z,55.31
2023-04-27T04:34:16.846Z,55.06
2023-04-27T04:36:51.818Z,54.99
2023-04-27T04:39:24.541Z,55.48
2023-04-27T04:41:55.833Z,55.05
2023-04-27T04:44:28.598Z,54.76
2023-04-27T04:47:00.115Z,54.28
2023-04-27T04:49:31.793Z,54.29
2023-04-27T04:52:04.217Z,54.10
2023-04-27T04:54:37.062Z,53.78
2023-04-27T04:57:08.806Z,53.89
2023-04-27T04:59:40.055Z,53.72
2023-04-27T05:02:11.501Z,53.73
2023-04-27T05:04:42.944Z,53.51
2023-04-27T05:07:16.085Z,53.44
2023-04-27T05:09:48.799Z,53.34
2023-04-27T05:12:20.229Z,53.22
2023-04-27T05:14:52.350Z,53.10
2023-04-27T05:17:23.487Z,53.16
2023-04-27T05:19:54.845Z,53.06
2023-04-27T05:22:26.234Z,52.95
2023-04-27T05:24:58.776Z,53.10
2023-04-27T05:27:30.195Z,53.42
2023-04-27T05:30:01.686Z,53.38
2023-04-27T05:32:33.985Z,53.15
2023-04-27T05:35:06.273Z,52.92
2023-04-27T05:37:37.770Z,52.93
2023-04-27T05:40:11.291Z,52.82
2023-04-27T05:42:42.632Z,52.66
2023-04-27T05:45:14.952Z,52.63
2023-04-27T05:47:46.425Z,52.54
2023-04-27T05:50:18.705Z,52.44
2023-04-27T05:52:50.232Z,52.20
2023-04-27T05:55:22.044Z,52.23
2023-04-27T05:58:06.662Z,52.37
2023-04-27T06:00:39.611Z,52.19
2023-04-27T06:03:11.436Z,52.20
2023-04-27T06:05:43.893Z,52.05
2023-04-27T06:08:15.624Z,52.01
2023-04-27T06:10:47.120Z,52.35
2023-04-27T06:13:18.513Z,52.46
2023-04-27T06:15:50.427Z,52.56
2023-04-27T06:18:21.866Z,52.37
2023-04-27T06:20:53.683Z,52.38
2023-04-27T06:23:25.394Z,52.33
2023-04-27T06:25:56.948Z,52.54
2023-04-27T06:28:28.424Z,52.44
2023-04-27T06:30:59.964Z,52.48
2023-04-27T06:33:31.201Z,52.46
2023-04-27T06:36:04.144Z,52.35
2023-04-27T06:38:35.807Z,52.53
2023-04-27T06:41:07.860Z,52.58
2023-04-27T06:43:39.167Z,52.59
2023-04-27T06:46:10.963Z,52.97
2023-04-27T06:48:42.754Z,52.96
2023-04-27T06:51:15.119Z,53.05
2023-04-27T06:53:46.627Z,53.05
2023-04-27T06:56:18.639Z,52.81
2023-04-27T06:58:50.213Z,52.79
2023-04-27T07:01:21.995Z,52.89
2023-04-27T07:03:53.637Z,52.89
2023-04-27T07:06:26.123Z,52.80
2023-04-27T07:08:57.709Z,53.03
2023-04-27T07:11:29.194Z,53.18
2023-04-27T07:14:00.770Z,53.02
2023-04-27T07:16:32.792Z,52.90
2023-04-27T07:19:04.575Z,53.10
2023-04-27T07:21:36.318Z,52.86
2023-04-27T07:24:08.420Z,52.92
2023-04-27T07:26:39.679Z,53.04
2023-04-27T07:31:48.169Z,53.00
2023-04-27T07:34:20.460Z,53.19
2023-04-27T07:36:54.367Z,53.38
2023-04-27T07:39:26.726Z,53.19
2023-04-27T07:41:58.449Z,53.18
2023-04-27T07:44:30.427Z,53.35
2023-04-27T07:47:05.003Z,53.40
2023-04-27T07:49:36.668Z,53.68
2023-04-27T07:52:08.499Z,53.88
2023-04-27T07:54:40.042Z,53.86
2023-04-27T07:57:15.055Z,53.86
2023-04-27T07:59:46.897Z,53.82
2023-04-27T08:02:20.304Z,53.79
2023-04-27T08:04:52.626Z,53.88
2023-04-27T08:07:24.197Z,53.98
2023-04-27T08:09:55.647Z,53.60
2023-04-27T08:12:27.112Z,53.88
2023-04-27T08:14:58.711Z,54.06
2023-04-27T08:17:30.377Z,54.06
2023-04-27T08:20:01.670Z,54.17
2023-04-27T08:22:33.286Z,54.24
2023-04-27T08:25:05.538Z,54.23
2023-04-27T08:27:37.750Z,54.11
2023-04-27T08:30:12.134Z,54.10
2023-04-27T08:32:43.995Z,54.26
2023-04-27T08:35:16.208Z,54.18
2023-04-27T08:37:47.988Z,54.15
2023-04-27T08:40:20.678Z,54.17
2023-04-27T08:43:00.490Z,54.02
2023-04-27T08:45:32.063Z,53.83
2023-04-27T08:48:03.456Z,53.48
2023-04-27T08:50:38.411Z,53.91
2023-04-27T08:53:19.945Z,53.96
2023-04-27T08:55:51.570Z,53.84
2023-04-27T08:58:22.923Z,53.88
2023-04-27T09:00:54.167Z,54.00
2023-04-27T09:03:28.707Z,53.92
2023-04-27T09:06:05.317Z,53.68
2023-04-27T09:08:49.091Z,53.23
2023-04-27T09:11:34.081Z,53.32
2023-04-27T09:14:18.752Z,53.42
2023-04-27T09:16:59.574Z,53.34
2023-04-27T09:19:31.986Z,53.26
2023-04-27T09:22:11.405Z,53.24
2023-04-27T09:24:53.828Z,53.26
2023-04-27T09:27:25.299Z,53.41
2023-04-27T09:29:56.584Z,53.49
2023-04-27T09:32:28.111Z,53.25
2023-04-27T09:34:59.732Z,53.33
2023-04-27T09:37:32.481Z,53.25
2023-04-27T09:40:06.020Z,53.35
2023-04-27T09:42:38.037Z,53.36
2023-04-27T09:45:11.634Z,53.32
2023-04-27T09:47:43.911Z,53.29
2023-04-27T09:50:16.573Z,53.60
2023-04-27T09:52:48.709Z,53.65
2023-04-27T09:55:26.010Z,53.73
2023-04-27T09:58:10.929Z,53.41
2023-04-27T10:00:58.487Z,53.02
2023-04-27T10:03:40.135Z,52.87
2023-04-27T10:06:53.870Z,52.76
2023-04-27T10:09:27.131Z,52.65
2023-04-27T10:11:58.779Z,52.51
2023-04-27T10:14:31.356Z,52.23
2023-04-27T10:17:12.145Z,51.60
2023-04-27T10:19:57.314Z,51.36
2023-04-27T10:22:40.787Z,51.20
2023-04-27T10:25:21.732Z,50.93
2023-04-27T10:27:54.933Z,50.90
2023-04-27T10:30:28.112Z,50.86
2023-04-27T10:33:01.216Z,50.63
2023-04-27T10:35:43.367Z,50.51
2023-04-27T10:38:19.862Z,50.35
2023-04-27T10:40:57.681Z,50.28
2023-04-27T10:43:31.154Z,50.48
2023-04-27T10:46:13.694Z,50.47
2023-04-27T10:48:46.105Z,50.45
2023-04-27T10:51:19.789Z,50.28
2023-04-27T10:53:55.390Z,50.20
2023-04-27T10:56:27.344Z,50.00
2023-04-27T10:59:03.536Z,50.03
2023-04-27T11:01:35.321Z,50.22
2023-04-27T11:04:07.265Z,49.89
2023-04-27T11:06:45.980Z,49.83
2023-04-27T11:09:28.892Z,49.77
2023-04-27T11:12:00.131Z,50.25
2023-04-27T11:14:32.206Z,50.05
2023-04-27T11:17:04.400Z,49.81
2023-04-27T11:19:45.527Z,49.78
2023-04-27T11:22:18.244Z,49.33
2023-04-27T11:24:54.559Z,49.62
2023-04-27T11:27:37.491Z,50.07
2023-04-27T11:30:20.278Z,49.89
2023-04-27T11:32:53.802Z,49.51
2023-04-27T11:35:35.450Z,49.23
2023-04-27T11:38:06.846Z,49.28
2023-04-27T11:40:41.185Z,49.50
2023-04-27T11:43:15.733Z,49.37
2023-04-27T11:45:47.520Z,49.48
2023-04-27T11:48:19.179Z,49.83
2023-04-27T11:50:51.630Z,49.34
2023-04-27T11:53:33.354Z,49.42
2023-04-27T11:56:08.475Z,49.31
2023-04-27T11:58:40.982Z,49.65
2023-04-27T12:01:13.362Z,49.58
2023-04-27T12:03:44.821Z,49.43
2023-04-27T12:06:32.266Z,49.47
2023-04-27T12:09:05.464Z,49.75
2023-04-27T12:11:36.951Z,49.61
2023-04-27T12:14:08.878Z,49.55
2023-04-27T12:16:40.306Z,49.89
2023-04-27T12:19:11.680Z,49.89
2023-04-27T12:21:44.122Z,50.04
2023-04-27T12:24:16.459Z,49.95
2023-04-27T12:26:48.064Z,49.86
2023-04-27T12:29:19.403Z,50.37
2023-04-27T12:31:51.379Z,50.16
2023-04-27T12:34:22.826Z,50.47
2023-04-27T12:36:54.486Z,50.38
2023-04-27T12:39:26.888Z,50.53
2023-04-27T12:41:58.707Z,50.67
2023-04-27T12:44:30.354Z,50.99
2023-04-27T12:47:01.713Z,50.92
2023-04-27T12:49:33.354Z,50.91
2023-04-27T12:52:04.864Z,51.16
2023-04-27T12:54:36.712Z,51.23
2023-04-27T12:57:08.278Z,51.43
2023-04-27T12:59:39.726Z,51.48
2023-04-27T13:02:11.838Z,51.74
2023-04-27T13:04:43.461Z,51.70
2023-04-27T13:07:15.182Z,51.86
2023-04-27T13:09:46.921Z,51.87
2023-04-27T13:12:19.056Z,51.99
2023-04-27T13:14:51.747Z,52.04
2023-04-27T13:17:22.865Z,52.06
2023-04-27T13:19:54.100Z,51.90
2023-04-27T13:22:25.380Z,51.83
2023-04-27T13:24:56.729Z,51.95
2023-04-27T13:27:28.641Z,51.98
2023-04-27T13:30:00.008Z,52.24
2023-04-27T13:32:31.726Z,52.17
2023-04-27T13:35:03.836Z,52.08
2023-04-27T13:37:35.501Z,52.08
2023-04-27T13:40:10.010Z,51.98
2023-04-27T13:42:41.789Z,52.28
2023-04-27T13:45:13.871Z,52.38
2023-04-27T13:47:45.287Z,52.74
2023-04-27T13:50:16.738Z,52.84
2023-04-27T13:52:48.251Z,52.80
2023-04-27T13:55:19.701Z,52.92
2023-04-27T13:57:51.370Z,53.27
2023-04-27T14:00:24.009Z,53.03
2023-04-27T14:02:55.629Z,53.02
2023-04-27T14:05:27.176Z,52.82
2023-04-27T14:07:58.398Z,53.04
2023-04-27T14:10:29.853Z,52.69
2023-04-27T14:13:01.771Z,52.80
2023-04-27T14:15:37.169Z,52.69
2023-04-27T14:18:11.205Z,52.13
2023-04-27T14:20:43.062Z,52.35
2023-04-27T14:23:14.379Z,52.24
2023-04-27T14:25:46.253Z,52.39
2023-04-27T14:28:17.491Z,52.45
2023-04-27T14:30:49.328Z,52.36
2023-04-27T14:33:21.182Z,52.40
2023-04-27T14:35:52.835Z,52.38
2023-04-27T14:38:25.525Z,52.66
2023-04-27T14:40:57.398Z,52.69
2023-04-27T14:43:28.815Z,52.77
2023-04-27T14:46:11.914Z,52.78
2023-04-27T14:48:52.563Z,52.86
2023-04-27T14:51:24.074Z,53.02
2023-04-27T14:53:55.920Z,53.14
2023-04-27T14:56:27.807Z,53.29
2023-04-27T14:58:59.131Z,53.43
2023-04-27T15:01:30.876Z,53.33
2023-04-27T15:04:02.569Z,53.35
2023-04-27T15:06:34.036Z,53.42
2023-04-27T15:09:05.836Z,53.48
2023-04-27T15:11:39.057Z,53.43
2023-04-27T15:14:10.557Z,53.41
2023-04-27T15:16:42.065Z,53.64
2023-04-27T15:19:13.745Z,53.66
2023-04-27T15:21:45.616Z,53.65
2023-04-27T15:24:17.020Z,53.77
2023-04-27T15:26:49.393Z,54.03
2023-04-27T15:29:21.490Z,54.02
2023-04-27T15:31:53.481Z,54.05
2023-04-27T15:34:25.752Z,54.02
2023-04-27T15:36:57.272Z,54.10
2023-04-27T15:39:28.833Z,54.21
2023-04-27T15:42:01.624Z,54.43
2023-04-27T15:44:33.226Z,54.46
2023-04-27T15:47:04.865Z,54.48
2023-04-27T15:49:45.740Z,54.55
2023-04-27T15:52:25.959Z,54.72
2023-04-27T15:54:57.556Z,54.81
2023-04-27T15:57:29.064Z,54.82
2023-04-27T16:00:00.424Z,54.95
2023-04-27T16:02:32.357Z,55.03
2023-04-27T16:05:05.618Z,55.05
2023-04-27T16:07:38.350Z,55.15
2023-04-27T16:10:13.004Z,55.26
2023-04-27T16:12:44.314Z,55.49
2023-04-27T16:15:16.454Z,55.50
2023-04-27T16:17:48.714Z,55.40
2023-04-27T16:20:21.327Z,55.45
2023-04-27T16:22:53.008Z,55.63
2023-04-27T16:25:24.792Z,55.70
2023-04-27T16:27:56.192Z,55.65
2023-04-27T16:30:28.288Z,55.80
2023-04-27T16:32:59.585Z,55.72
2023-04-27T16:35:33.919Z,55.93
2023-04-27T16:38:06.569Z,55.86
2023-04-27T16:40:39.250Z,56.01
2023-04-27T16:43:10.930Z,55.99
2023-04-27T16:45:42.979Z,56.19
2023-04-27T16:48:14.880Z,56.16
2023-04-27T16:50:46.243Z,56.14
2023-04-27T16:53:21.192Z,56.19
2023-04-27T16:55:52.826Z,56.26
2023-04-27T16:58:24.408Z,56.37
2023-04-27T17:00:55.718Z,56.47
2023-04-27T17:03:27.828Z,56.46
2023-04-27T17:05:59.828Z,56.55
2023-04-27T17:08:31.204Z,56.47
2023-04-27T17:11:02.468Z,56.54
2023-04-27T17:13:34.023Z,56.55
2023-04-27T17:16:05.586Z,56.70
2023-04-27T17:18:36.885Z,56.61
2023-04-27T17:21:08.578Z,56.57
2023-04-27T17:23:41.602Z,56.52
2023-04-27T17:26:12.914Z,56.57
2023-04-27T17:28:44.553Z,56.70
2023-04-27T17:31:16.849Z,56.68
2023-04-27T17:33:49.660Z,56.66
2023-04-27T17:36:21.266Z,56.78
2023-04-27T17:38:52.470Z,56.84
2023-04-27T17:41:23.971Z,56.94
2023-04-27T17:43:55.196Z,57.02
2023-04-27T17:46:26.480Z,57.07
2023-04-27T17:48:57.743Z,57.13
2023-04-27T17:51:28.897Z,57.22
2023-04-27T17:54:00.364Z,57.02
2023-04-27T17:56:32.007Z,57.03
2023-04-27T17:59:03.459Z,57.03
2023-04-27T18:01:35.115Z,56.96
2023-04-27T18:04:07.534Z,56.83
2023-04-27T18:06:39.204Z,56.68
2023-04-27T18:09:11.130Z,56.68
2023-04-27T18:11:42.506Z,56.61
2023-04-27T18:14:14.375Z,56.64
2023-04-27T18:16:45.979Z,56.67
2023-04-27T18:19:17.692Z,56.97
2023-04-27T18:21:49.897Z,56.90
2023-04-27T18:24:21.071Z,56.85
2023-04-27T18:26:52.762Z,56.91
2023-04-27T18:29:24.287Z,56.96
2023-04-27T18:31:57.134Z,56.93
2023-04-27T18:34:28.556Z,57.06
2023-04-27T18:37:01.534Z,57.03
2023-04-27T18:39:33.182Z,56.96
2023-04-27T18:42:04.636Z,57.02
2023-04-27T18:44:36.612Z,57.24
2023-04-27T18:47:08.081Z,57.10
2023-04-27T18:49:39.405Z,57.15
2023-04-27T18:52:11.708Z,57.33
2023-04-27T18:54:43.453Z,57.65
2023-04-27T18:57:15.406Z,57.49
2023-04-27T18:59:47.046Z,57.50
2023-04-27T19:02:18.327Z,57.38
2023-04-27T19:05:01.693Z,57.27
2023-04-27T19:07:40.816Z,57.30
2023-04-27T19:10:13.405Z,57.40
2023-04-27T19:12:44.587Z,57.31
2023-04-27T19:15:17.100Z,57.13
2023-04-27T19:17:52.834Z,57.25
2023-04-27T19:20:33.690Z,57.21
2023-04-27T19:23:05.421Z,56.96
2023-04-27T19:25:37.370Z,56.94
2023-04-27T19:28:09.636Z,56.98
2023-04-27T19:30:41.632Z,56.82
2023-04-27T19:33:13.238Z,56.85
2023-04-27T19:35:44.982Z,56.68
2023-04-27T19:38:16.638Z,56.54
2023-04-27T19:40:48.403Z,56.23
2023-04-27T19:43:19.554Z,56.02
2023-04-27T19:45:51.226Z,56.10
2023-04-27T19:48:22.914Z,56.29
2023-04-27T19:50:54.963Z,56.31
2023-04-27T19:53:26.316Z,56.29
2023-04-27T19:56:00.090Z,56.27
2023-04-27T19:58:32.005Z,56.25
2023-04-27T20:01:04.100Z,56.17
2023-04-27T20:03:38.038Z,56.11
2023-04-27T20:06:10.458Z,56.15
2023-04-27T20:08:41.896Z,56.16
2023-04-27T20:11:12.916Z,56.12
2023-04-27T20:13:44.060Z,56.17
2023-04-27T20:16:15.161Z,56.07
2023-04-27T20:18:46.918Z,56.15
2023-04-27T20:21:18.283Z,56.16
2023-04-27T20:23:52.278Z,56.13
2023-04-27T20:26:24.747Z,56.34
2023-04-27T20:28:56.176Z,56.29
2023-04-27T20:31:27.537Z,56.71
2023-04-27T20:33:59.249Z,56.53
2023-04-27T20:36:32.221Z,56.36
2023-04-27T20:39:06.355Z,56.42
2023-04-27T20:41:38.611Z,56.08
2023-04-27T20:44:10.413Z,55.86
2023-04-27T20:46:41.895Z,55.92
2023-04-27T20:49:13.611Z,55.66
2023-04-27T20:51:48.303Z,55.78
2023-04-27T20:54:19.592Z,55.93
2023-04-27T20:56:50.840Z,55.81
2023-04-27T20:59:22.643Z,55.74
2023-04-27T21:01:54.164Z,55.71
2023-04-27T21:04:25.487Z,55.66
2023-04-27T21:06:57.100Z,55.65
2023-04-27T21:09:28.488Z,55.57
2023-04-27T21:11:59.954Z,55.49
2023-04-27T21:14:31.747Z,55.54
2023-04-27T21:17:03.224Z,55.31
2023-04-27T21:19:34.607Z,55.41
2023-04-27T21:22:05.980Z,55.20
2023-04-27T21:24:37.576Z,55.22
2023-04-27T21:27:09.008Z,55.06
2023-04-27T21:29:40.919Z,54.96
2023-04-27T21:32:12.397Z,54.88
2023-04-27T21:34:44.255Z,54.86
2023-04-27T21:37:27.616Z,55.11
2023-04-27T21:39:58.814Z,55.26
2023-04-27T21:42:30.627Z,55.42
2023-04-27T21:45:03.074Z,55.60
2023-04-27T21:47:34.671Z,55.57
2023-04-27T21:50:07.628Z,55.48
2023-04-27T21:52:39.077Z,55.75
2023-04-27T21:55:11.305Z,55.65
2023-04-27T21:57:42.590Z,55.66
2023-04-27T22:00:17.215Z,55.63
2023-04-27T22:02:51.610Z,55.63
2023-04-27T22:05:23.749Z,55.25
2023-04-27T22:07:55.650Z,55.16
2023-04-27T22:10:27.258Z,55.07
2023-04-27T22:13:02.414Z,54.86
2023-04-27T22:15:37.246Z,54.85
2023-04-27T22:18:09.062Z,54.94
2023-04-27T22:20:40.577Z,54.93
2023-04-27T22:23:12.145Z,54.84
2023-04-27T22:25:43.837Z,54.86
2023-04-27T22:28:15.106Z,54.79
2023-04-27T22:30:46.635Z,54.91
2023-04-27T22:33:18.475Z,54.80
2023-04-27T22:35:50.621Z,55.00
2023-04-27T22:38:22.199Z,55.19
2023-04-27T22:40:53.509Z,55.15
2023-04-27T22:43:24.852Z,55.15
2023-04-27T22:45:56.344Z,55.19
2023-04-27T22:48:27.581Z,55.18
2023-04-27T22:50:59.027Z,55.20
2023-04-27T22:53:30.283Z,55.28
2023-04-27T22:56:01.374Z,55.16
2023-04-27T22:58:32.694Z,55.26
2023-04-27T23:01:04.451Z,55.23
2023-04-27T23:03:36.290Z,55.28
2023-04-27T23:06:08.764Z,55.14
2023-04-27T23:08:42.667Z,55.00
2023-04-27T23:11:15.593Z,55.07
2023-04-27T23:13:48.339Z,54.89
2023-04-27T23:16:19.489Z,54.91
2023-04-27T23:18:51.367Z,54.65
2023-04-27T23:21:22.751Z,54.65
2023-04-27T23:23:54.124Z,54.71
2023-04-27T23:26:25.567Z,54.62
2023-04-27T23:28:57.058Z,54.52
2023-04-27T23:31:28.558Z,54.58
2023-04-27T23:33:59.953Z,54.71
2023-04-27T23:36:34.304Z,54.76
2023-04-27T23:39:05.739Z,54.89
2023-04-27T23:41:37.469Z,55.08
2023-04-27T23:44:09.061Z,55.02
2023-04-27T23:46:40.488Z,55.10
2023-04-27T23:49:12.204Z,55.04
2023-04-27T23:51:43.689Z,55.23
2023-04-27T23:54:16.052Z,55.20
2023-04-27T23:56:47.524Z,55.12
2023-04-27T23:59:20.499Z,55.13
